x

New York Harbor Entrance - 15 Nm Se Of Breezy Point , Ny (44065) Wave Buoy

10:50pm - Tue 26th Jul 2016 All times are EDT. -4 hours from GMT.

  • Sig Wave height 2.0ft
  • Swell Direction
  • Peak Period 7s
  • Average Period 5s
  • Wind
    7mph
  • Sea Temp 75°f
  • Air Temp 80°f
  • Sea Pressure 1012.7mb
  • New York Harbor Entrance - 15 Nm Se Of Breezy Point , Ny
  • New York Harbor Entrance - 15 Nm Se Of Breezy Point , Ny

More Historic Weather Station data

Upgrade to MSW Pro to gain access to the past 30 days of data for over 8000 Wavebouys and Weather Stations around the globe.

Join Pro

Comparision Forecast

View Surf forecast
   
Tue 07/26 10:50pm 2ft 7s 5s 7
mph
1012.7mb 75f 80f
9:50pm 2.5ft 7s 5s 7 9 mph 1012.4mb 76f 79f
8:50pm 2.5ft 7s 4s 11 13 mph 1011.8mb 76f 81f
7:50pm 2.5ft 7s 5s 9 11 mph 1011mb 76f 78f
6:50pm 2.5ft 6s 6s 7 9 mph 1010.7mb 76f 80f
5:50pm 2.5ft 7s 6s 9
mph
1010.9mb 76f 80f
4:50pm 2ft 7s 6s 7 9 mph 1011.1mb 76f 80f
3:50pm 2ft 7s 6s 4 7 mph 1011.3mb 76f 80f
2:50pm 2ft 6s 6s 7
mph
1011.5mb 75f 79f
1:50pm 2ft 6s 6s 9 11 mph 1011.6mb 74f 80f
12:50pm 2ft 7s 6s 9 11 mph 1012.1mb 74f 78f
11:50am 2ft 6s 6s 7
mph
1012.6mb 73f 75f
10:50am 2ft 6s 5s 7 9 mph 1012.8mb 73f 74f
9:50am 2ft 6s 5s 9 11 mph 1012.7mb 72f 73f
8:50am 2ft 5s 4s 13 16 mph 1012.5mb 72f 73f
7:50am 2.5ft 6s 4s 11 13 mph 1012.6mb 72f 73f
6:50am 2ft 6s 4s 16 18 mph 1012mb 72f 73f
5:50am 2ft 6s 4s 16 18 mph 1011.3mb 72f 73f
4:50am 2ft 5s 4s 11 13 mph 1010.9mb 72f 73f
3:50am 1.6ft 6s 4s 11 13 mph 1011mb 73f 73f
2:50am 1.6ft 3s 4s 13 16 mph 1010.9mb 73f 73f
1:50am 2ft 4s 4s 11 13 mph 1010.4mb 73f 73f
12:50am 2ft 4s 3s 11
mph
1010.9mb 73f 73f
Mon 07/25 11:50pm 2.5ft 4s 3s 18 22 mph 1011mb 73f 74f
10:50pm 2ft 4s 3s 16 18 mph 1011.2mb 72f 74f
9:50pm 1.6ft 4s 4s 16 18 mph 1011.2mb 72f 74f
8:50pm 1.3ft 8s 4s 11 13 mph 1011.6mb 73f 74f
7:50pm 2ft 3s 3s 7 9 mph 1012.3mb 73f 73f
6:50pm 2.5ft 3s 3s 18 27 mph 1011.9mb 73f 72f
5:50pm 2.5ft 4s 4s 13
mph
1009.9mb 73f 77f
4:50pm 2.5ft 4s 4s 13 16 mph 1009.8mb 74f 77f
3:50pm 2ft 4s 4s 13 16 mph 1010.2mb 76f 77f
2:50pm 2.5ft 4s 4s 11
mph
1011.3mb 75f 76f
1:50pm 2.5ft 4s 4s 13
mph
1012.3mb 75f 76f
12:50pm 2ft 3s 4s 7 9 mph 1012.9mb 75f 75f
11:50am 2.5ft 4s 4s 9 11 mph 1013.1mb 74f 75f
10:50am 2.5ft 4s 4s 16 20 mph 1013.5mb 74f 75f
9:50am 2.5ft 4s 4s 18 22 mph 1013.5mb 74f 74f
8:50am 2.5ft 4s 4s 16 20 mph 1013.8mb 74f 75f
7:50am 2ft 4s 4s 11 16 mph 1013.8mb 74f 74f
6:50am 2ft 6s 4s 9 13 mph 1014.8mb 74f 75f
5:50am 2ft 6s 4s 9 11 mph 1013.9mb 74f 76f
4:50am 2ft 6s 4s 9 11 mph 1013.8mb 73f 76f
3:50am 2ft 4s 4s 9 11 mph 1014mb 74f 75f
2:50am 2.5ft 6s 4s 11 13 mph 1013.8mb 74f 75f
1:50am 2.5ft 4s 4s 16 18 mph 1013.9mb 74f 76f
12:50am 2.5ft 4s 4s 13 16 mph 1014.3mb 73f 76f
Sun 07/24 11:50pm 2.5ft 4s 4s 13 16 mph 1014.6mb 73f 76f
10:50pm 2.5ft 4s 4s 16 18 mph 1014.8mb 73f 76f
9:50pm 3ft 4s 4s 18 20 mph 1014.5mb 73f 77f
8:50pm 2.5ft 6s 4s 16 18 mph 1014.2mb 73f 77f
7:50pm 2.5ft 4s 4s 16 18 mph 1014.1mb 73f 76f
6:50pm 2.5ft 3s 4s 16 20 mph 1013.9mb 74f 77f
5:50pm 2.5ft 3s 4s 16 18 mph 1013.8mb 74f 77f
4:50pm 2.5ft 3s 4s 16 18 mph 1013.9mb 74f 77f
3:50pm 2ft 6s 4s 16 18 mph 1014.1mb 74f 76f
2:50pm 1.6ft 6s 4s 16 18 mph 1014.5mb 74f 77f
1:50pm 1.6ft 6s 5s 13 16 mph 1015mb 75f 77f
12:50pm 1.6ft 8s 5s 7 9 mph 1015.1mb 75f 77f
11:50am 1.6ft 7s 5s 7
mph
1015.2mb 74f 77f
10:50am 2ft 5s 5s 2
mph
1015.2mb 74f 75f
9:50am 1.6ft 6s 5s 4 7 mph 1015.1mb 73f 74f
8:50am 2ft 6s 5s 4
mph
1015.1mb 73f 74f
7:50am 2ft 6s 5s 4
mph
1014.9mb 73f 74f
6:50am 2ft 6s 5s 4
mph
1014.6mb 72f 75f
5:50am 2ft 6s 5s 7
mph
1014.1mb 73f 74f
4:50am 2.5ft 7s 5s 7
mph
1013.4mb 73f 75f
3:50am 2.5ft 7s 5s 7 9 mph 1013.3mb 73f 76f
2:50am 2.5ft 6s 5s 7
mph
1013.3mb 73f 76f
1:50am 2.5ft 6s 5s 2
mph
1012.9mb 73f 77f
12:50am 2.5ft 7s 5s 7
mph
1012.4mb 73f 79f
Sat 07/23 11:50pm 2.5ft 7s 5s 4 7 mph 1011.8mb 73f 77f
10:50pm 2.5ft 8s 4s 9
mph
1011.3mb 73f 79f
9:50pm 2.5ft 6s 4s 9
mph
1010.6mb 74f 78f
8:50pm 2.5ft 8s 5s 13 16 mph 1009.9mb 74f 79f
7:50pm 2.5ft 6s 5s 9
mph
1009.6mb 76f 82f
6:50pm 2ft 8s 5s 7
mph
1009.2mb 77f 84f
5:50pm 2ft 6s 5s 4 7 mph 1008.6mb 77f 85f
4:50pm 2ft 6s 5s 7
mph
1009.6mb 77f 83f
3:50pm 2.5ft 6s 5s 7
mph
1010mb 76f 81f
2:50pm 2.5ft 6s 5s 7
mph
1010.2mb 76f 81f
1:50pm 2.5ft 6s 5s 4 7 mph 1010.3mb 77f 82f
12:50pm 2.5ft 8s 5s 4
mph
1010.6mb 76f 80f
11:50am 2.5ft 8s 5s 4 7 mph 1011mb 74f 80f
10:50am 2.5ft 6s 5s 7
mph
1010.9mb 73f 76f
9:50am 2.5ft 6s 5s 9
mph
1010.7mb 73f 76f
8:50am 3ft 6s 5s 11 13 mph 1010.9mb 72f 76f
7:50am 3ft 5s 5s 9 11 mph 1011mb 72f 75f
6:50am 3ft 6s 5s 9 11 mph 1010.7mb 72f 75f
5:50am 3.5ft 6s 5s 9 11 mph 1010.2mb 72f 74f
4:50am 3.5ft 6s 5s 9
mph
1009.9mb 72f 74f